sensor_id;sensor_type;location;lat;lon;timestamp;temperature;humidity
10644;DHT22;5370;50.132;8.626;2023-12-22T00:02:16;6.70;92.90
10644;DHT22;5370;50.132;8.626;2023-12-22T00:04:41;6.60;92.90
10644;DHT22;5370;50.132;8.626;2023-12-22T00:07:07;6.70;93.30
10644;DHT22;5370;50.132;8.626;2023-12-22T00:09:32;6.70;93.00
10644;DHT22;5370;50.132;8.626;2023-12-22T00:11:58;6.70;93.00
10644;DHT22;5370;50.132;8.626;2023-12-22T00:14:23;6.70;93.00
10644;DHT22;5370;50.132;8.626;2023-12-22T00:16:49;6.70;93.10
10644;DHT22;5370;50.132;8.626;2023-12-22T00:19:14;6.70;93.10
10644;DHT22;5370;50.132;8.626;2023-12-22T00:21:40;6.70;93.20
10644;DHT22;5370;50.132;8.626;2023-12-22T00:24:06;6.70;93.30
10644;DHT22;5370;50.132;8.626;2023-12-22T00:26:32;6.70;93.30
10644;DHT22;5370;50.132;8.626;2023-12-22T00:28:57;6.70;93.30
10644;DHT22;5370;50.132;8.626;2023-12-22T00:31:23;6.70;93.40
10644;DHT22;5370;50.132;8.626;2023-12-22T00:33:48;6.70;93.60
10644;DHT22;5370;50.132;8.626;2023-12-22T00:36:14;6.70;93.70
10644;DHT22;5370;50.132;8.626;2023-12-22T00:38:40;6.70;93.70
10644;DHT22;5370;50.132;8.626;2023-12-22T00:41:06;6.70;93.80
10644;DHT22;5370;50.132;8.626;2023-12-22T00:43:31;6.70;93.80
10644;DHT22;5370;50.132;8.626;2023-12-22T00:45:57;6.70;93.70
10644;DHT22;5370;50.132;8.626;2023-12-22T00:48:23;6.70;93.70
10644;DHT22;5370;50.132;8.626;2023-12-22T00:50:48;6.70;93.70
10644;DHT22;5370;50.132;8.626;2023-12-22T00:53:14;6.60;93.70
10644;DHT22;5370;50.132;8.626;2023-12-22T00:55:39;6.60;93.80
10644;DHT22;5370;50.132;8.626;2023-12-22T00:58:05;6.60;93.90
10644;DHT22;5370;50.132;8.626;2023-12-22T01:00:30;6.60;94.10
10644;DHT22;5370;50.132;8.626;2023-12-22T01:02:56;6.60;94.20
10644;DHT22;5370;50.132;8.626;2023-12-22T01:05:21;6.70;94.20
10644;DHT22;5370;50.132;8.626;2023-12-22T01:07:47;6.70;94.30
10644;DHT22;5370;50.132;8.626;2023-12-22T01:10:13;6.70;94.30
10644;DHT22;5370;50.132;8.626;2023-12-22T01:12:38;6.70;94.40
10644;DHT22;5370;50.132;8.626;2023-12-22T01:15:04;6.70;94.50
10644;DHT22;5370;50.132;8.626;2023-12-22T01:17:30;6.70;94.50
10644;DHT22;5370;50.132;8.626;2023-12-22T01:19:55;6.80;94.70
10644;DHT22;5370;50.132;8.626;2023-12-22T01:22:21;6.80;94.70
10644;DHT22;5370;50.132;8.626;2023-12-22T01:24:48;6.80;94.80
10644;DHT22;5370;50.132;8.626;2023-12-22T01:27:13;6.90;94.90
10644;DHT22;5370;50.132;8.626;2023-12-22T01:29:39;6.90;94.90
10644;DHT22;5370;50.132;8.626;2023-12-22T01:32:05;6.90;94.90
10644;DHT22;5370;50.132;8.626;2023-12-22T01:34:31;6.80;94.40
10644;DHT22;5370;50.132;8.626;2023-12-22T01:36:56;6.60;93.90
10644;DHT22;5370;50.132;8.626;2023-12-22T01:39:22;6.50;93.90
10644;DHT22;5370;50.132;8.626;2023-12-22T01:41:47;6.30;93.90
10644;DHT22;5370;50.132;8.626;2023-12-22T01:44:13;6.20;94.00
10644;DHT22;5370;50.132;8.626;2023-12-22T01:46:39;6.20;94.20
10644;DHT22;5370;50.132;8.626;2023-12-22T01:49:05;6.10;94.30
10644;DHT22;5370;50.132;8.626;2023-12-22T01:51:32;6.10;94.50
10644;DHT22;5370;50.132;8.626;2023-12-22T01:53:59;6.10;94.70
10644;DHT22;5370;50.132;8.626;2023-12-22T01:56:25;6.20;94.90
10644;DHT22;5370;50.132;8.626;2023-12-22T01:58:53;6.20;95.10
10644;DHT22;5370;50.132;8.626;2023-12-22T02:01:20;6.30;95.10
10644;DHT22;5370;50.132;8.626;2023-12-22T02:03:49;6.30;95.20
10644;DHT22;5370;50.132;8.626;2023-12-22T02:06:18;6.30;95.10
10644;DHT22;5370;50.132;8.626;2023-12-22T02:08:46;6.30;94.90
10644;DHT22;5370;50.132;8.626;2023-12-22T02:11:12;6.30;94.80
10644;DHT22;5370;50.132;8.626;2023-12-22T02:13:38;6.20;94.70
10644;DHT22;5370;50.132;8.626;2023-12-22T02:16:32;6.20;94.60
10644;DHT22;5370;50.132;8.626;2023-12-22T02:22:05;6.10;94.40
10644;DHT22;5370;50.132;8.626;2023-12-22T02:24:31;6.00;94.20
10644;DHT22;5370;50.132;8.626;2023-12-22T02:29:33;5.90;94.10
10644;DHT22;5370;50.132;8.626;2023-12-22T02:32:04;5.80;94.10
10644;DHT22;5370;50.132;8.626;2023-12-22T02:34:31;5.70;94.10
10644;DHT22;5370;50.132;8.626;2023-12-22T02:36:59;5.70;94.20
10644;DHT22;5370;50.132;8.626;2023-12-22T02:39:24;5.70;94.30
10644;DHT22;5370;50.132;8.626;2023-12-22T02:41:50;5.70;94.40
10644;DHT22;5370;50.132;8.626;2023-12-22T02:44:16;5.70;94.40
10644;DHT22;5370;50.132;8.626;2023-12-22T02:46:42;5.80;94.50
10644;DHT22;5370;50.132;8.626;2023-12-22T02:49:08;5.80;94.50
10644;DHT22;5370;50.132;8.626;2023-12-22T02:51:34;5.80;94.50
10644;DHT22;5370;50.132;8.626;2023-12-22T02:53:59;5.80;94.50
10644;DHT22;5370;50.132;8.626;2023-12-22T02:56:25;5.80;94.40
10644;DHT22;5370;50.132;8.626;2023-12-22T02:58:50;5.80;94.30
10644;DHT22;5370;50.132;8.626;2023-12-22T03:01:16;5.70;94.20
10644;DHT22;5370;50.132;8.626;2023-12-22T03:03:41;5.70;94.20
10644;DHT22;5370;50.132;8.626;2023-12-22T03:06:07;5.60;94.20
10644;DHT22;5370;50.132;8.626;2023-12-22T03:08:32;5.50;94.30
10644;DHT22;5370;50.132;8.626;2023-12-22T03:10:58;5.50;94.40
10644;DHT22;5370;50.132;8.626;2023-12-22T03:13:23;5.40;94.50
10644;DHT22;5370;50.132;8.626;2023-12-22T03:19:11;5.40;95.00
10644;DHT22;5370;50.132;8.626;2023-12-22T03:21:37;5.50;95.20
10644;DHT22;5370;50.132;8.626;2023-12-22T03:24:02;5.50;95.40
10644;DHT22;5370;50.132;8.626;2023-12-22T03:26:28;5.60;95.60
10644;DHT22;5370;50.132;8.626;2023-12-22T03:28:53;5.70;95.70
10644;DHT22;5370;50.132;8.626;2023-12-22T03:31:19;5.80;95.90
10644;DHT22;5370;50.132;8.626;2023-12-22T03:33:45;5.80;96.00
10644;DHT22;5370;50.132;8.626;2023-12-22T03:36:10;5.90;96.00
10644;DHT22;5370;50.132;8.626;2023-12-22T03:38:36;5.90;96.10
10644;DHT22;5370;50.132;8.626;2023-12-22T03:41:02;6.00;96.10
10644;DHT22;5370;50.132;8.626;2023-12-22T03:43:27;6.00;96.20
10644;DHT22;5370;50.132;8.626;2023-12-22T03:45:53;6.00;96.40
10644;DHT22;5370;50.132;8.626;2023-12-22T03:48:19;6.10;96.60
10644;DHT22;5370;50.132;8.626;2023-12-22T03:50:45;6.20;96.90
10644;DHT22;5370;50.132;8.626;2023-12-22T03:53:10;6.30;97.00
10644;DHT22;5370;50.132;8.626;2023-12-22T03:55:36;6.40;97.10
10644;DHT22;5370;50.132;8.626;2023-12-22T03:58:01;6.40;97.10
10644;DHT22;5370;50.132;8.626;2023-12-22T04:00:28;6.40;96.90
10644;DHT22;5370;50.132;8.626;2023-12-22T04:02:54;6.50;96.80
10644;DHT22;5370;50.132;8.626;2023-12-22T04:05:20;6.40;96.70
10644;DHT22;5370;50.132;8.626;2023-12-22T04:07:45;6.40;96.60
10644;DHT22;5370;50.132;8.626;2023-12-22T04:10:11;6.30;96.50
10644;DHT22;5370;50.132;8.626;2023-12-22T04:12:36;6.30;96.50
10644;DHT22;5370;50.132;8.626;2023-12-22T04:15:02;6.20;96.50
10644;DHT22;5370;50.132;8.626;2023-12-22T04:17:28;6.20;96.50
10644;DHT22;5370;50.132;8.626;2023-12-22T04:19:53;6.20;96.60
10644;DHT22;5370;50.132;8.626;2023-12-22T04:22:19;6.10;96.60
10644;DHT22;5370;50.132;8.626;2023-12-22T04:24:44;6.20;96.80
10644;DHT22;5370;50.132;8.626;2023-12-22T04:27:10;6.20;97.00
10644;DHT22;5370;50.132;8.626;2023-12-22T04:29:35;6.30;97.10
10644;DHT22;5370;50.132;8.626;2023-12-22T04:32:01;6.40;97.30
10644;DHT22;5370;50.132;8.626;2023-12-22T04:34:27;6.50;97.30
10644;DHT22;5370;50.132;8.626;2023-12-22T04:36:52;6.60;97.30
10644;DHT22;5370;50.132;8.626;2023-12-22T04:39:18;6.70;97.20
10644;DHT22;5370;50.132;8.626;2023-12-22T04:41:43;6.70;97.10
10644;DHT22;5370;50.132;8.626;2023-12-22T04:44:09;6.80;97.00
10644;DHT22;5370;50.132;8.626;2023-12-22T04:46:34;6.90;96.80
10644;DHT22;5370;50.132;8.626;2023-12-22T04:49:00;6.90;96.70
10644;DHT22;5370;50.132;8.626;2023-12-22T04:51:27;7.00;96.60
10644;DHT22;5370;50.132;8.626;2023-12-22T04:53:52;7.00;96.40
10644;DHT22;5370;50.132;8.626;2023-12-22T04:56:18;7.10;96.30
10644;DHT22;5370;50.132;8.626;2023-12-22T04:58:43;7.10;96.30
10644;DHT22;5370;50.132;8.626;2023-12-22T05:01:09;7.20;96.20
10644;DHT22;5370;50.132;8.626;2023-12-22T05:03:34;7.20;96.00
10644;DHT22;5370;50.132;8.626;2023-12-22T05:06:00;7.30;95.80
10644;DHT22;5370;50.132;8.626;2023-12-22T05:08:25;7.40;95.70
10644;DHT22;5370;50.132;8.626;2023-12-22T05:10:51;7.40;95.50
10644;DHT22;5370;50.132;8.626;2023-12-22T05:13:16;7.40;95.40
10644;DHT22;5370;50.132;8.626;2023-12-22T05:15:42;7.50;95.30
10644;DHT22;5370;50.132;8.626;2023-12-22T05:18:08;7.50;95.20
10644;DHT22;5370;50.132;8.626;2023-12-22T05:20:33;7.50;95.10
10644;DHT22;5370;50.132;8.626;2023-12-22T05:22:59;7.50;95.10
10644;DHT22;5370;50.132;8.626;2023-12-22T05:25:25;7.50;95.00
10644;DHT22;5370;50.132;8.626;2023-12-22T05:27:51;7.50;95.00
10644;DHT22;5370;50.132;8.626;2023-12-22T05:30:17;7.50;94.80
10644;DHT22;5370;50.132;8.626;2023-12-22T05:32:43;7.50;94.60
10644;DHT22;5370;50.132;8.626;2023-12-22T05:35:09;7.50;94.50
10644;DHT22;5370;50.132;8.626;2023-12-22T05:37:35;7.40;94.40
10644;DHT22;5370;50.132;8.626;2023-12-22T05:40:01;7.40;94.40
10644;DHT22;5370;50.132;8.626;2023-12-22T05:42:27;7.40;94.30
10644;DHT22;5370;50.132;8.626;2023-12-22T05:44:52;7.40;94.30
10644;DHT22;5370;50.132;8.626;2023-12-22T05:47:18;7.40;94.30
10644;DHT22;5370;50.132;8.626;2023-12-22T05:49:44;7.30;94.30
10644;DHT22;5370;50.132;8.626;2023-12-22T05:52:10;7.40;94.30
10644;DHT22;5370;50.132;8.626;2023-12-22T05:54:37;7.40;94.30
10644;DHT22;5370;50.132;8.626;2023-12-22T05:57:03;7.30;94.10
10644;DHT22;5370;50.132;8.626;2023-12-22T05:59:30;7.30;94.00
10644;DHT22;5370;50.132;8.626;2023-12-22T06:01:58;7.30;94.00
10644;DHT22;5370;50.132;8.626;2023-12-22T06:04:24;7.30;93.90
10644;DHT22;5370;50.132;8.626;2023-12-22T06:06:50;7.30;93.90
10644;DHT22;5370;50.132;8.626;2023-12-22T06:09:16;7.30;93.90
10644;DHT22;5370;50.132;8.626;2023-12-22T06:11:45;7.30;93.90
10644;DHT22;5370;50.132;8.626;2023-12-22T06:14:10;7.30;93.60
10644;DHT22;5370;50.132;8.626;2023-12-22T06:16:36;7.40;93.50
10644;DHT22;5370;50.132;8.626;2023-12-22T06:19:01;7.40;93.30
10644;DHT22;5370;50.132;8.626;2023-12-22T06:21:27;7.50;93.20
10644;DHT22;5370;50.132;8.626;2023-12-22T06:23:52;7.60;93.10
10644;DHT22;5370;50.132;8.626;2023-12-22T06:26:18;7.60;92.90
10644;DHT22;5370;50.132;8.626;2023-12-22T06:28:43;7.60;92.80
10644;DHT22;5370;50.132;8.626;2023-12-22T06:31:17;7.70;92.70
10644;DHT22;5370;50.132;8.626;2023-12-22T06:33:47;7.70;92.40
10644;DHT22;5370;50.132;8.626;2023-12-22T06:36:23;7.80;92.20
10644;DHT22;5370;50.132;8.626;2023-12-22T06:38:52;7.80;92.00
10644;DHT22;5370;50.132;8.626;2023-12-22T06:41:27;7.80;91.90
10644;DHT22;5370;50.132;8.626;2023-12-22T06:43:53;7.80;91.80
10644;DHT22;5370;50.132;8.626;2023-12-22T06:46:20;7.80;91.60
10644;DHT22;5370;50.132;8.626;2023-12-22T06:48:47;7.80;91.50
10644;DHT22;5370;50.132;8.626;2023-12-22T06:51:21;7.90;91.40
10644;DHT22;5370;50.132;8.626;2023-12-22T06:53:50;7.90;91.20
10644;DHT22;5370;50.132;8.626;2023-12-22T06:58:42;7.90;91.00
10644;DHT22;5370;50.132;8.626;2023-12-22T07:01:07;7.90;91.00
10644;DHT22;5370;50.132;8.626;2023-12-22T07:03:34;7.80;90.90
10644;DHT22;5370;50.132;8.626;2023-12-22T07:05:59;7.80;90.90
10644;DHT22;5370;50.132;8.626;2023-12-22T07:08:25;7.80;90.70
10644;DHT22;5370;50.132;8.626;2023-12-22T07:10:50;7.90;90.40
10644;DHT22;5370;50.132;8.626;2023-12-22T07:13:16;7.90;90.00
10644;DHT22;5370;50.132;8.626;2023-12-22T07:15:41;8.00;89.80
10644;DHT22;5370;50.132;8.626;2023-12-22T07:18:07;8.00;89.70
10644;DHT22;5370;50.132;8.626;2023-12-22T07:20:32;8.00;89.70
10644;DHT22;5370;50.132;8.626;2023-12-22T07:22:58;8.00;89.90
10644;DHT22;5370;50.132;8.626;2023-12-22T07:25:23;8.00;89.90
10644;DHT22;5370;50.132;8.626;2023-12-22T07:27:49;8.10;89.60
10644;DHT22;5370;50.132;8.626;2023-12-22T07:30:15;8.10;89.10
10644;DHT22;5370;50.132;8.626;2023-12-22T07:32:45;8.20;88.80
10644;DHT22;5370;50.132;8.626;2023-12-22T07:35:12;8.20;88.50
10644;DHT22;5370;50.132;8.626;2023-12-22T07:37:38;8.20;88.30
10644;DHT22;5370;50.132;8.626;2023-12-22T07:40:04;8.30;88.30
10644;DHT22;5370;50.132;8.626;2023-12-22T07:42:30;8.30;88.30
10644;DHT22;5370;50.132;8.626;2023-12-22T07:44:55;8.40;88.30
10644;DHT22;5370;50.132;8.626;2023-12-22T07:47:21;8.40;88.20
10644;DHT22;5370;50.132;8.626;2023-12-22T07:49:46;8.50;88.10
10644;DHT22;5370;50.132;8.626;2023-12-22T07:52:15;8.50;88.90
10644;DHT22;5370;50.132;8.626;2023-12-22T07:54:40;8.60;88.30
10644;DHT22;5370;50.132;8.626;2023-12-22T07:57:06;8.60;88.20
10644;DHT22;5370;50.132;8.626;2023-12-22T07:59:31;8.70;88.30
10644;DHT22;5370;50.132;8.626;2023-12-22T08:01:57;8.70;88.10
10644;DHT22;5370;50.132;8.626;2023-12-22T08:04:22;8.70;88.00
10644;DHT22;5370;50.132;8.626;2023-12-22T08:06:48;8.70;87.80
10644;DHT22;5370;50.132;8.626;2023-12-22T08:09:13;8.80;87.70
10644;DHT22;5370;50.132;8.626;2023-12-22T08:11:39;8.80;87.70
10644;DHT22;5370;50.132;8.626;2023-12-22T08:14:04;8.80;87.60
10644;DHT22;5370;50.132;8.626;2023-12-22T08:16:30;8.90;87.60
10644;DHT22;5370;50.132;8.626;2023-12-22T08:18:57;8.90;87.50
10644;DHT22;5370;50.132;8.626;2023-12-22T08:21:23;8.90;87.60
10644;DHT22;5370;50.132;8.626;2023-12-22T08:23:49;9.00;87.70
10644;DHT22;5370;50.132;8.626;2023-12-22T08:26:14;9.00;87.40
10644;DHT22;5370;50.132;8.626;2023-12-22T08:28:42;9.00;87.30
10644;DHT22;5370;50.132;8.626;2023-12-22T08:31:08;9.00;87.30
10644;DHT22;5370;50.132;8.626;2023-12-22T08:33:33;9.10;87.40
10644;DHT22;5370;50.132;8.626;2023-12-22T08:35:59;9.10;87.60
10644;DHT22;5370;50.132;8.626;2023-12-22T08:38:24;9.10;87.60
10644;DHT22;5370;50.132;8.626;2023-12-22T08:40:50;9.10;87.70
10644;DHT22;5370;50.132;8.626;2023-12-22T08:43:15;9.10;87.60
10644;DHT22;5370;50.132;8.626;2023-12-22T08:45:41;9.10;87.50
10644;DHT22;5370;50.132;8.626;2023-12-22T08:48:06;9.00;87.60
10644;DHT22;5370;50.132;8.626;2023-12-22T08:50:34;9.00;87.30
10644;DHT22;5370;50.132;8.626;2023-12-22T08:52:59;8.90;87.30
10644;DHT22;5370;50.132;8.626;2023-12-22T08:55:25;8.80;87.40
10644;DHT22;5370;50.132;8.626;2023-12-22T08:57:51;8.90;87.70
10644;DHT22;5370;50.132;8.626;2023-12-22T09:00:16;8.80;87.60
10644;DHT22;5370;50.132;8.626;2023-12-22T09:02:42;8.80;87.60
10644;DHT22;5370;50.132;8.626;2023-12-22T09:05:08;8.80;87.60
10644;DHT22;5370;50.132;8.626;2023-12-22T09:07:33;8.80;87.80
10644;DHT22;5370;50.132;8.626;2023-12-22T09:09:59;8.80;88.00
10644;DHT22;5370;50.132;8.626;2023-12-22T09:12:24;8.80;88.20
10644;DHT22;5370;50.132;8.626;2023-12-22T09:14:50;8.80;88.40
10644;DHT22;5370;50.132;8.626;2023-12-22T09:17:15;8.90;88.60
10644;DHT22;5370;50.132;8.626;2023-12-22T09:19:41;8.90;88.50
10644;DHT22;5370;50.132;8.626;2023-12-22T09:22:08;8.90;88.60
10644;DHT22;5370;50.132;8.626;2023-12-22T09:24:34;8.90;88.60
10644;DHT22;5370;50.132;8.626;2023-12-22T09:26:59;8.90;88.80
10644;DHT22;5370;50.132;8.626;2023-12-22T09:29:31;8.90;88.80
10644;DHT22;5370;50.132;8.626;2023-12-22T09:31:59;8.90;88.90
10644;DHT22;5370;50.132;8.626;2023-12-22T09:34:26;8.90;89.20
10644;DHT22;5370;50.132;8.626;2023-12-22T09:36:52;8.90;89.40
10644;DHT22;5370;50.132;8.626;2023-12-22T09:39:18;8.90;89.80
10644;DHT22;5370;50.132;8.626;2023-12-22T09:41:50;8.90;90.00
10644;DHT22;5370;50.132;8.626;2023-12-22T09:44:19;9.00;90.00
10644;DHT22;5370;50.132;8.626;2023-12-22T09:46:49;9.10;90.00
10644;DHT22;5370;50.132;8.626;2023-12-22T09:49:18;9.00;90.00
10644;DHT22;5370;50.132;8.626;2023-12-22T09:51:44;9.10;90.10
10644;DHT22;5370;50.132;8.626;2023-12-22T09:54:11;9.10;90.10
10644;DHT22;5370;50.132;8.626;2023-12-22T09:56:37;9.10;90.20
10644;DHT22;5370;50.132;8.626;2023-12-22T09:59:13;9.10;90.40
10644;DHT22;5370;50.132;8.626;2023-12-22T10:01:44;9.10;90.10
10644;DHT22;5370;50.132;8.626;2023-12-22T10:04:13;9.20;90.20
10644;DHT22;5370;50.132;8.626;2023-12-22T10:06:39;9.10;90.20
10644;DHT22;5370;50.132;8.626;2023-12-22T10:09:08;9.20;90.30
10644;DHT22;5370;50.132;8.626;2023-12-22T10:11:35;9.20;90.40
10644;DHT22;5370;50.132;8.626;2023-12-22T10:14:02;9.20;90.60
10644;DHT22;5370;50.132;8.626;2023-12-22T10:16:28;9.30;90.60
10644;DHT22;5370;50.132;8.626;2023-12-22T10:18:55;9.40;90.70
10644;DHT22;5370;50.132;8.626;2023-12-22T10:21:20;9.50;90.70
10644;DHT22;5370;50.132;8.626;2023-12-22T10:23:46;9.50;90.60
10644;DHT22;5370;50.132;8.626;2023-12-22T10:26:12;9.50;90.60
10644;DHT22;5370;50.132;8.626;2023-12-22T10:28:37;9.50;90.50
10644;DHT22;5370;50.132;8.626;2023-12-22T10:31:03;9.50;90.50
10644;DHT22;5370;50.132;8.626;2023-12-22T10:33:33;9.50;90.60
10644;DHT22;5370;50.132;8.626;2023-12-22T10:36:02;9.50;90.70
10644;DHT22;5370;50.132;8.626;2023-12-22T10:38:34;9.40;90.80
10644;DHT22;5370;50.132;8.626;2023-12-22T10:41:03;9.40;91.00
10644;DHT22;5370;50.132;8.626;2023-12-22T10:43:29;9.40;91.40
10644;DHT22;5370;50.132;8.626;2023-12-22T10:45:55;9.50;91.90
10644;DHT22;5370;50.132;8.626;2023-12-22T10:48:22;9.60;92.10
10644;DHT22;5370;50.132;8.626;2023-12-22T10:50:48;9.70;92.20
10644;DHT22;5370;50.132;8.626;2023-12-22T10:53:14;9.80;92.30
10644;DHT22;5370;50.132;8.626;2023-12-22T10:55:40;9.80;92.20
10644;DHT22;5370;50.132;8.626;2023-12-22T10:58:05;9.80;92.20
10644;DHT22;5370;50.132;8.626;2023-12-22T11:00:37;9.80;92.40
10644;DHT22;5370;50.132;8.626;2023-12-22T11:03:07;9.80;92.40
10644;DHT22;5370;50.132;8.626;2023-12-22T11:05:37;9.80;92.40
10644;DHT22;5370;50.132;8.626;2023-12-22T11:08:07;9.90;92.50
10644;DHT22;5370;50.132;8.626;2023-12-22T11:10:36;9.90;92.50
10644;DHT22;5370;50.132;8.626;2023-12-22T11:13:05;9.90;92.50
10644;DHT22;5370;50.132;8.626;2023-12-22T11:15:31;9.90;92.40
10644;DHT22;5370;50.132;8.626;2023-12-22T11:17:58;9.90;92.40
10644;DHT22;5370;50.132;8.626;2023-12-22T11:20:24;9.90;92.30
10644;DHT22;5370;50.132;8.626;2023-12-22T11:22:51;9.90;92.30
10644;DHT22;5370;50.132;8.626;2023-12-22T11:25:18;10.00;91.90
10644;DHT22;5370;50.132;8.626;2023-12-22T11:27:44;10.00;91.80
10644;DHT22;5370;50.132;8.626;2023-12-22T11:30:12;10.00;91.80
10644;DHT22;5370;50.132;8.626;2023-12-22T11:32:39;10.00;91.80
10644;DHT22;5370;50.132;8.626;2023-12-22T11:35:06;10.10;91.80
10644;DHT22;5370;50.132;8.626;2023-12-22T11:37:38;10.10;92.00
10644;DHT22;5370;50.132;8.626;2023-12-22T11:40:04;10.10;91.60
10644;DHT22;5370;50.132;8.626;2023-12-22T11:42:34;10.20;91.50
10644;DHT22;5370;50.132;8.626;2023-12-22T11:45:02;10.20;91.40
10644;DHT22;5370;50.132;8.626;2023-12-22T11:47:28;10.20;91.30
10644;DHT22;5370;50.132;8.626;2023-12-22T11:49:53;10.20;91.30
10644;DHT22;5370;50.132;8.626;2023-12-22T11:52:26;10.20;91.20
10644;DHT22;5370;50.132;8.626;2023-12-22T11:54:56;10.20;91.20
10644;DHT22;5370;50.132;8.626;2023-12-22T12:00:37;10.20;91.20
10644;DHT22;5370;50.132;8.626;2023-12-22T12:03:06;10.20;91.50
10644;DHT22;5370;50.132;8.626;2023-12-22T12:05:32;10.20;91.20
10644;DHT22;5370;50.132;8.626;2023-12-22T12:08:06;10.20;91.20
10644;DHT22;5370;50.132;8.626;2023-12-22T12:13:08;10.20;91.40
10644;DHT22;5370;50.132;8.626;2023-12-22T12:15:35;10.20;91.50
10644;DHT22;5370;50.132;8.626;2023-12-22T12:18:01;10.20;91.60
10644;DHT22;5370;50.132;8.626;2023-12-22T12:20:27;10.20;91.60
10644;DHT22;5370;50.132;8.626;2023-12-22T12:22:53;10.10;91.60
10644;DHT22;5370;50.132;8.626;2023-12-22T12:25:22;10.10;91.80
10644;DHT22;5370;50.132;8.626;2023-12-22T12:27:51;10.10;91.80
10644;DHT22;5370;50.132;8.626;2023-12-22T12:30:26;10.00;91.90
10644;DHT22;5370;50.132;8.626;2023-12-22T12:32:51;10.00;92.00
10644;DHT22;5370;50.132;8.626;2023-12-22T12:35:18;10.10;92.10
10644;DHT22;5370;50.132;8.626;2023-12-22T12:37:45;10.00;92.10
10644;DHT22;5370;50.132;8.626;2023-12-22T12:40:15;10.00;92.10
10644;DHT22;5370;50.132;8.626;2023-12-22T12:42:43;10.00;92.20
10644;DHT22;5370;50.132;8.626;2023-12-22T12:45:09;10.00;92.20
10644;DHT22;5370;50.132;8.626;2023-12-22T12:47:35;10.00;92.30
10644;DHT22;5370;50.132;8.626;2023-12-22T12:50:01;10.00;92.30
10644;DHT22;5370;50.132;8.626;2023-12-22T12:52:27;10.00;92.40
10644;DHT22;5370;50.132;8.626;2023-12-22T12:54:53;10.10;92.50
10644;DHT22;5370;50.132;8.626;2023-12-22T12:57:19;10.10;92.50
10644;DHT22;5370;50.132;8.626;2023-12-22T12:59:48;10.10;92.50
10644;DHT22;5370;50.132;8.626;2023-12-22T13:02:18;10.20;92.60
10644;DHT22;5370;50.132;8.626;2023-12-22T13:04:44;10.10;92.50
10644;DHT22;5370;50.132;8.626;2023-12-22T13:07:10;10.20;92.50
10644;DHT22;5370;50.132;8.626;2023-12-22T13:09:38;10.20;92.60
10644;DHT22;5370;50.132;8.626;2023-12-22T13:12:04;10.20;92.60
10644;DHT22;5370;50.132;8.626;2023-12-22T13:14:30;10.20;92.70
10644;DHT22;5370;50.132;8.626;2023-12-22T13:16:57;10.20;92.80
10644;DHT22;5370;50.132;8.626;2023-12-22T13:19:23;10.20;92.90
10644;DHT22;5370;50.132;8.626;2023-12-22T13:21:56;10.20;93.10
10644;DHT22;5370;50.132;8.626;2023-12-22T13:24:21;10.30;93.20
10644;DHT22;5370;50.132;8.626;2023-12-22T13:26:59;10.20;93.20
10644;DHT22;5370;50.132;8.626;2023-12-22T13:29:26;10.20;93.40
10644;DHT22;5370;50.132;8.626;2023-12-22T13:31:52;10.20;93.60
10644;DHT22;5370;50.132;8.626;2023-12-22T13:34:17;10.20;93.70
10644;DHT22;5370;50.132;8.626;2023-12-22T13:36:43;10.20;93.80
10644;DHT22;5370;50.132;8.626;2023-12-22T13:39:09;10.30;94.00
10644;DHT22;5370;50.132;8.626;2023-12-22T13:41:42;10.30;94.20
10644;DHT22;5370;50.132;8.626;2023-12-22T13:44:11;10.30;94.30
10644;DHT22;5370;50.132;8.626;2023-12-22T13:46:37;10.30;94.40
10644;DHT22;5370;50.132;8.626;2023-12-22T13:49:10;10.30;94.90
10644;DHT22;5370;50.132;8.626;2023-12-22T13:51:47;10.30;94.70
10644;DHT22;5370;50.132;8.626;2023-12-22T13:54:13;10.40;94.80
10644;DHT22;5370;50.132;8.626;2023-12-22T13:56:39;10.40;95.10
10644;DHT22;5370;50.132;8.626;2023-12-22T13:59:06;10.40;94.90
10644;DHT22;5370;50.132;8.626;2023-12-22T14:01:32;10.40;95.00
10644;DHT22;5370;50.132;8.626;2023-12-22T14:03:58;10.40;95.00
10644;DHT22;5370;50.132;8.626;2023-12-22T14:06:26;10.40;95.00
10644;DHT22;5370;50.132;8.626;2023-12-22T14:08:52;10.40;95.10
10644;DHT22;5370;50.132;8.626;2023-12-22T14:11:18;10.40;95.20
10644;DHT22;5370;50.132;8.626;2023-12-22T14:13:43;10.40;95.20
10644;DHT22;5370;50.132;8.626;2023-12-22T14:16:09;10.40;95.30
10644;DHT22;5370;50.132;8.626;2023-12-22T14:18:35;10.40;95.30
10644;DHT22;5370;50.132;8.626;2023-12-22T14:21:01;10.40;95.40
10644;DHT22;5370;50.132;8.626;2023-12-22T14:23:26;10.40;95.40
10644;DHT22;5370;50.132;8.626;2023-12-22T14:25:52;10.40;95.40
10644;DHT22;5370;50.132;8.626;2023-12-22T14:28:18;10.40;95.40
10644;DHT22;5370;50.132;8.626;2023-12-22T14:30:44;10.50;95.50
10644;DHT22;5370;50.132;8.626;2023-12-22T14:33:10;10.50;95.50
10644;DHT22;5370;50.132;8.626;2023-12-22T14:35:36;10.50;95.50
10644;DHT22;5370;50.132;8.626;2023-12-22T14:38:02;10.50;95.50
10644;DHT22;5370;50.132;8.626;2023-12-22T14:40:28;10.50;95.40
10644;DHT22;5370;50.132;8.626;2023-12-22T14:42:53;10.50;95.40
10644;DHT22;5370;50.132;8.626;2023-12-22T14:45:19;10.50;95.30
10644;DHT22;5370;50.132;8.626;2023-12-22T14:47:44;10.50;95.30
10644;DHT22;5370;50.132;8.626;2023-12-22T14:50:10;10.50;95.20
10644;DHT22;5370;50.132;8.626;2023-12-22T14:52:35;10.50;95.20
10644;DHT22;5370;50.132;8.626;2023-12-22T14:55:01;10.60;95.10
10644;DHT22;5370;50.132;8.626;2023-12-22T14:57:28;10.60;95.10
10644;DHT22;5370;50.132;8.626;2023-12-22T14:59:56;10.60;95.00
10644;DHT22;5370;50.132;8.626;2023-12-22T15:02:22;10.60;95.00
10644;DHT22;5370;50.132;8.626;2023-12-22T15:04:47;10.60;94.90
10644;DHT22;5370;50.132;8.626;2023-12-22T15:07:17;10.60;94.90
10644;DHT22;5370;50.132;8.626;2023-12-22T15:09:43;10.60;94.90
10644;DHT22;5370;50.132;8.626;2023-12-22T15:12:10;10.60;94.90
10644;DHT22;5370;50.132;8.626;2023-12-22T15:14:35;10.70;95.00
10644;DHT22;5370;50.132;8.626;2023-12-22T15:17:01;10.60;94.90
10644;DHT22;5370;50.132;8.626;2023-12-22T15:19:26;10.60;94.80
10644;DHT22;5370;50.132;8.626;2023-12-22T15:21:52;10.60;94.80
10644;DHT22;5370;50.132;8.626;2023-12-22T15:24:18;10.60;94.80
10644;DHT22;5370;50.132;8.626;2023-12-22T15:26:43;10.60;94.80
10644;DHT22;5370;50.132;8.626;2023-12-22T15:29:09;10.60;94.80
10644;DHT22;5370;50.132;8.626;2023-12-22T15:31:34;10.60;94.70
10644;DHT22;5370;50.132;8.626;2023-12-22T15:34:00;10.60;94.60
10644;DHT22;5370;50.132;8.626;2023-12-22T15:36:26;10.60;94.50
10644;DHT22;5370;50.132;8.626;2023-12-22T15:38:53;10.60;94.50
10644;DHT22;5370;50.132;8.626;2023-12-22T15:41:19;10.70;94.40
10644;DHT22;5370;50.132;8.626;2023-12-22T15:43:45;10.70;94.30
10644;DHT22;5370;50.132;8.626;2023-12-22T15:46:10;10.70;94.10
10644;DHT22;5370;50.132;8.626;2023-12-22T15:48:37;10.70;93.90
10644;DHT22;5370;50.132;8.626;2023-12-22T15:51:10;10.80;93.80
10644;DHT22;5370;50.132;8.626;2023-12-22T15:53:39;10.80;93.60
10644;DHT22;5370;50.132;8.626;2023-12-22T15:56:07;10.80;93.40
10644;DHT22;5370;50.132;8.626;2023-12-22T15:58:35;10.90;93.30
10644;DHT22;5370;50.132;8.626;2023-12-22T16:01:02;10.80;93.10
10644;DHT22;5370;50.132;8.626;2023-12-22T16:03:28;10.90;92.90
10644;DHT22;5370;50.132;8.626;2023-12-22T16:05:53;10.90;92.80
10644;DHT22;5370;50.132;8.626;2023-12-22T16:08:19;11.00;92.70
10644;DHT22;5370;50.132;8.626;2023-12-22T16:10:44;10.90;92.60